Cozumel, Mexico

7:22 AM CDT on August 31, 2014 (GMT -0500)
Cozumel International | Change Station
CLOSE
Current Station
Airport
Location: Cozumel,
Elevation: 16 ft
Nearby Weather Stations

Elev 16 ft 20.52 °N, 86.93 °W | Updated 35 minutes ago

Light Rain
Light Rain
72 °F
Feels Like 72 °F
N
5
Wind Variable Wind from East

Today
High -- | Low -- °F
--% Chance of Precip.
Yesterday
High -- | Low -- °F
Precip. -- in
6:31 AM 7:04 PM
Waxing Crescent, 30% visible
Pressure 29.89 in
Visibility 6.0 miles
Clouds Mostly Cloudy 1500 ft
Dew Point 72 °F
Humidity 100%
Rainfall 3.55 in
Snow Depth Not available.
UV 0 out of 12
Pollen Not available.
Air Quality Not available.
Flu Activity Not available.
METAR MMCZ 311147Z 10004KT 6SM -RA BKN015CB 22/22 A2991 RMK SLP121 57009 901 60355 8/300 SC CI RTS

More Conditions Fewer Conditions

Pressure 29.89 in
Visibility 6.0 miles
Clouds Mostly Cloudy 1500 ft
Dew Point 72 °F
Humidity 100%
Rainfall 3.55 in
Snow Depth Not available.
UV 0 out of 12
Pollen Not available.
Air Quality Not available.
Flu Activity Not available.
METAR MMCZ 311147Z 10004KT 6SM -RA BKN015CB 22/22 A2991 RMK SLP121 57009 901 60355 8/300 SC CI RTS

More Conditions Fewer Conditions

10-Day Weather Forecast

Almanac

Astronomy

Aug. 31, 2014 Rise Set
Actual Time 6:31 AM CDT 7:04 PM CDT
Civil Twilight 6:09 AM CDT 7:26 PM CDT
Nautical Twilight 5:42 AM CDT 7:52 PM CDT
Astronomical Twilight 5:16 AM CDT 8:19 PM CDT
Moon 11:31 AM CDT 11:07 PM CDT
Length of Visible Light 13h 17m
Length of Day
12h 32m
Tomorrow will be 1m 7s shorter.
Waxing Crescent, 30% of the Moon is Illuminated
Today
Waxing Crescent
Sep 2
First Quarter
Sep 8
Full
Sep 15
Last Quarter
Sep 24
New

Yesterday's Extremes

Country Highs Country Lows

Community

WunderPhotos

Upload Photos

1,748,856 photos uploaded!

Nearby

Snow Depth

Not available.

Earthquake Activity

City Distance Mag. Time & Date
No recent earthquake activity has been reported nearby.
Minimum magnitude displayed is 2.5.

Coastal Water Temperatures

Place Temperature
No Stations Reporting

Nearby Weather Stations